createdAt,value
2023-04-29T00:00:14.171Z,18.60
2023-04-29T00:03:16.124Z,22.08
2023-04-29T00:06:18.217Z,19.40
2023-04-29T00:09:19.958Z,20.93
2023-04-29T00:12:21.622Z,23.92
2023-04-29T00:15:23.262Z,22.75
2023-04-29T00:18:25.000Z,21.20
2023-04-29T00:21:27.526Z,20.83
2023-04-29T00:24:29.630Z,20.43
2023-04-29T00:27:31.683Z,21.50
2023-04-29T00:30:34.655Z,23.42
2023-04-29T00:33:36.427Z,23.75
2023-04-29T00:36:38.052Z,21.60
2023-04-29T00:39:39.789Z,20.10
2023-04-29T00:42:42.180Z,17.10
2023-04-29T00:45:44.370Z,15.85
2023-04-29T00:48:46.032Z,18.45
2023-04-29T00:51:48.452Z,15.43
2023-04-29T00:54:50.983Z,16.67
2023-04-29T00:57:53.182Z,17.48
2023-04-29T01:00:56.480Z,20.10
2023-04-29T01:03:58.911Z,17.25
2023-04-29T01:07:09.218Z,16.80
2023-04-29T01:10:27.057Z,21.50
2023-04-29T01:13:38.141Z,17.17
2023-04-29T01:16:52.140Z,18.63
2023-04-29T01:19:58.890Z,16.88
2023-04-29T01:23:00.622Z,18.10
2023-04-29T01:26:05.975Z,18.57
2023-04-29T01:29:10.610Z,19.35
2023-04-29T01:32:23.325Z,17.65
2023-04-29T01:35:55.455Z,18.23
2023-04-29T01:39:19.865Z,16.70
2023-04-29T01:42:26.803Z,16.70
2023-04-29T01:45:29.480Z,18.67
2023-04-29T01:48:31.636Z,17.88
2023-04-29T01:51:34.644Z,18.23
2023-04-29T01:54:36.627Z,21.65
2023-04-29T01:57:38.251Z,16.10
2023-04-29T02:00:40.069Z,16.88
2023-04-29T02:03:42.082Z,16.30
2023-04-29T02:06:44.437Z,19.42
2023-04-29T02:09:46.037Z,18.27
2023-04-29T02:12:47.657Z,17.33
2023-04-29T02:15:49.537Z,15.32
2023-04-29T02:18:51.264Z,15.77
2023-04-29T02:21:52.940Z,15.38
2023-04-29T02:24:54.539Z,15.40
2023-04-29T02:27:56.140Z,16.10
2023-04-29T02:30:57.860Z,17.77
2023-04-29T02:34:00.603Z,16.45
2023-04-29T02:37:02.333Z,14.10
2023-04-29T02:40:04.313Z,15.65
2023-04-29T02:43:05.933Z,14.83
2023-04-29T02:46:07.541Z,11.70
2023-04-29T02:49:09.233Z,12.57
2023-04-29T02:52:10.812Z,14.45
2023-04-29T02:55:12.510Z,12.30
2023-04-29T02:58:14.104Z,11.30
2023-04-29T03:01:16.302Z,13.20
2023-04-29T03:04:18.096Z,14.82
2023-04-29T03:07:19.762Z,13.23
2023-04-29T03:10:21.806Z,14.52
2023-04-29T03:13:23.511Z,13.03
2023-04-29T03:16:25.637Z,11.23
2023-04-29T03:19:27.403Z,13.80
2023-04-29T03:22:29.015Z,13.77
2023-04-29T03:25:31.300Z,13.32
2023-04-29T03:28:35.024Z,10.93
2023-04-29T03:31:36.711Z,10.15
2023-04-29T03:34:38.352Z,9.77
2023-04-29T03:37:40.135Z,9.55
2023-04-29T03:40:41.799Z,10.60
2023-04-29T03:43:46.183Z,10.20
2023-04-29T03:46:47.790Z,9.75
2023-04-29T03:49:49.638Z,10.77
2023-04-29T03:52:51.464Z,10.55
2023-04-29T03:55:53.135Z,10.30
2023-04-29T03:58:54.806Z,10.67
2023-04-29T04:01:56.613Z,10.07
2023-04-29T04:04:59.085Z,10.13
2023-04-29T04:08:00.895Z,10.20
2023-04-29T04:11:05.368Z,12.40
2023-04-29T04:14:07.491Z,10.83
2023-04-29T04:17:09.084Z,11.60
2023-04-29T04:20:11.570Z,10.65
2023-04-29T04:23:13.612Z,10.82
2023-04-29T04:26:15.325Z,9.63
2023-04-29T04:29:16.999Z,9.73
2023-04-29T04:32:18.780Z,11.38
2023-04-29T04:35:20.704Z,11.13
2023-04-29T04:38:25.443Z,10.48
2023-04-29T04:41:27.239Z,10.13
2023-04-29T04:44:28.881Z,10.90
2023-04-29T04:47:30.735Z,11.23
2023-04-29T04:50:32.423Z,10.52
2023-04-29T04:53:34.059Z,12.40
2023-04-29T04:56:37.666Z,11.52
2023-04-29T04:59:39.515Z,12.50
2023-04-29T05:02:41.882Z,11.43
2023-04-29T05:05:43.749Z,10.52
2023-04-29T05:08:45.429Z,13.77
2023-04-29T05:11:47.098Z,11.80
2023-04-29T05:14:53.302Z,9.77
2023-04-29T05:17:55.023Z,10.50
2023-04-29T05:20:56.745Z,11.30
2023-04-29T05:23:58.354Z,11.45
2023-04-29T05:26:59.974Z,11.48
2023-04-29T05:30:02.296Z,12.10
2023-04-29T05:33:04.106Z,10.52
2023-04-29T05:36:06.757Z,9.68
2023-04-29T05:39:08.352Z,12.07
2023-04-29T05:42:09.940Z,10.68
2023-04-29T05:45:12.546Z,11.90
2023-04-29T05:48:14.210Z,9.35
2023-04-29T05:51:16.076Z,10.77
2023-04-29T05:54:17.718Z,10.40
2023-04-29T05:57:19.323Z,8.93
2023-04-29T06:00:21.292Z,10.50
2023-04-29T06:03:23.063Z,10.80
2023-04-29T06:06:25.273Z,12.40
2023-04-29T06:09:28.300Z,10.75
2023-04-29T06:12:31.036Z,9.45
2023-04-29T06:15:33.017Z,13.03
2023-04-29T06:18:34.688Z,13.20
2023-04-29T06:21:36.268Z,10.98
2023-04-29T06:24:37.880Z,11.20
2023-04-29T06:27:39.488Z,9.70
2023-04-29T06:30:41.333Z,10.43
2023-04-29T06:33:43.429Z,10.15
2023-04-29T06:36:45.062Z,10.95
2023-04-29T06:39:46.734Z,11.23
2023-04-29T06:42:48.409Z,11.48
2023-04-29T06:45:50.066Z,11.23
2023-04-29T06:48:51.687Z,9.18
2023-04-29T06:51:53.571Z,11.30
2023-04-29T06:54:55.360Z,11.10
2023-04-29T06:57:57.670Z,10.93
2023-04-29T07:00:59.316Z,9.33
2023-04-29T07:04:01.108Z,9.73
2023-04-29T07:07:03.545Z,12.05
2023-04-29T07:10:05.702Z,11.48
2023-04-29T07:13:07.658Z,9.90
2023-04-29T07:16:18.338Z,11.83
2023-04-29T07:19:20.056Z,14.05
2023-04-29T07:22:21.831Z,13.13
2023-04-29T07:25:23.504Z,11.27
2023-04-29T07:28:25.130Z,11.88
2023-04-29T07:31:27.092Z,14.37
2023-04-29T07:34:28.834Z,10.88
2023-04-29T07:37:30.472Z,11.48
2023-04-29T07:40:32.365Z,11.32
2023-04-29T07:43:34.081Z,11.30
2023-04-29T07:46:35.969Z,11.60
2023-04-29T07:49:37.914Z,12.40
2023-04-29T07:52:39.566Z,9.93
2023-04-29T07:55:41.256Z,10.68
2023-04-29T07:58:42.957Z,10.80
2023-04-29T08:01:44.584Z,10.93
2023-04-29T08:04:47.048Z,10.90
2023-04-29T08:07:49.663Z,9.90
2023-04-29T08:10:51.360Z,10.60
2023-04-29T08:13:53.528Z,10.75
2023-04-29T08:16:55.801Z,10.87
2023-04-29T08:19:57.455Z,10.20
2023-04-29T08:23:00.678Z,10.68
2023-04-29T08:26:03.468Z,10.18
2023-04-29T08:29:05.284Z,10.35
2023-04-29T08:32:07.020Z,9.93
2023-04-29T08:35:09.418Z,10.75
2023-04-29T08:38:11.117Z,10.50
2023-04-29T08:41:15.346Z,11.40
2023-04-29T08:44:17.850Z,10.68
2023-04-29T08:47:19.846Z,10.70
2023-04-29T08:50:22.164Z,9.45
2023-04-29T08:53:23.798Z,10.32
2023-04-29T08:56:28.153Z,8.95
2023-04-29T08:59:30.890Z,9.57
2023-04-29T09:02:33.949Z,10.87
2023-04-29T09:05:36.656Z,9.40
2023-04-29T09:08:40.020Z,10.10
2023-04-29T09:11:41.654Z,10.32
2023-04-29T09:14:43.378Z,10.45
2023-04-29T09:17:48.899Z,10.57
2023-04-29T09:20:50.647Z,9.65
2023-04-29T09:23:54.468Z,9.27
2023-04-29T09:26:56.731Z,10.23
2023-04-29T09:30:02.051Z,10.88
2023-04-29T09:33:06.522Z,10.37
2023-04-29T09:36:08.366Z,9.55
2023-04-29T09:39:20.878Z,9.48
2023-04-29T09:42:22.619Z,10.35
2023-04-29T09:45:53.539Z,11.27
2023-04-29T09:48:55.616Z,9.23
2023-04-29T09:52:01.937Z,9.80
2023-04-29T09:55:06.253Z,10.05
2023-04-29T09:58:07.967Z,12.85
2023-04-29T10:01:10.482Z,10.15
2023-04-29T10:04:13.948Z,9.47
2023-04-29T10:07:17.718Z,10.40
2023-04-29T10:10:21.553Z,12.32
2023-04-29T10:13:26.924Z,10.43
2023-04-29T10:16:38.835Z,11.02
2023-04-29T10:19:49.439Z,10.37
2023-04-29T10:22:52.684Z,11.63
2023-04-29T10:25:56.001Z,10.75
2023-04-29T10:29:00.133Z,9.75
2023-04-29T10:32:03.362Z,9.85
2023-04-29T10:35:10.097Z,11.13
2023-04-29T10:38:23.123Z,10.30
2023-04-29T10:41:31.797Z,11.30
2023-04-29T10:44:58.078Z,12.50
2023-04-29T10:48:08.775Z,11.57
2023-04-29T10:51:10.761Z,9.50
2023-04-29T10:54:16.910Z,9.43
2023-04-29T10:57:22.056Z,11.20
2023-04-29T11:00:28.156Z,10.88
2023-04-29T11:04:05.367Z,10.52
2023-04-29T11:07:07.064Z,9.43
2023-04-29T11:10:09.045Z,9.55
2023-04-29T11:13:40.345Z,9.52
2023-04-29T11:16:51.641Z,9.68
2023-04-29T11:19:56.012Z,7.72
2023-04-29T11:22:57.941Z,8.10
2023-04-29T11:25:59.607Z,10.30
2023-04-29T11:29:02.557Z,9.32
2023-04-29T11:32:04.437Z,9.77
2023-04-29T11:35:09.574Z,9.68
2023-04-29T11:38:12.167Z,8.20
2023-04-29T11:41:22.602Z,9.55
2023-04-29T11:44:24.244Z,8.05
2023-04-29T11:47:30.796Z,9.00
2023-04-29T11:50:32.801Z,8.57
2023-04-29T11:53:34.960Z,8.73
2023-04-29T11:56:40.597Z,10.63
2023-04-29T11:59:43.014Z,9.73
2023-04-29T12:02:46.847Z,9.27
2023-04-29T12:05:56.049Z,8.18
2023-04-29T12:09:01.269Z,8.13
2023-04-29T12:12:03.103Z,7.85
2023-04-29T12:15:05.623Z,11.38
2023-04-29T12:18:08.404Z,9.57
2023-04-29T12:21:10.295Z,9.13
2023-04-29T12:24:13.378Z,9.10
2023-04-29T12:27:15.101Z,8.65
2023-04-29T12:30:16.756Z,8.25
2023-04-29T12:33:28.996Z,9.27
2023-04-29T12:36:32.901Z,10.82
2023-04-29T12:39:34.845Z,10.23
2023-04-29T12:42:36.504Z,8.32
2023-04-29T12:45:38.795Z,9.23
2023-04-29T12:48:41.809Z,9.90
2023-04-29T12:51:43.592Z,10.57
2023-04-29T12:54:45.268Z,8.77
2023-04-29T12:57:47.141Z,9.63
2023-04-29T13:00:49.163Z,9.23
2023-04-29T13:03:51.647Z,8.82
2023-04-29T13:07:00.139Z,9.50
2023-04-29T13:10:02.362Z,9.23
2023-04-29T13:13:04.899Z,8.90
2023-04-29T13:16:06.923Z,8.60
2023-04-29T13:19:24.676Z,8.10
2023-04-29T13:22:30.795Z,9.65
2023-04-29T13:25:32.442Z,9.33
2023-04-29T13:28:34.039Z,9.25
2023-04-29T13:31:35.867Z,8.80
2023-04-29T13:34:37.556Z,9.85
2023-04-29T13:37:39.164Z,8.82
2023-04-29T13:40:46.041Z,9.20
2023-04-29T13:43:50.861Z,9.23
2023-04-29T13:46:52.836Z,9.30
2023-04-29T13:50:22.528Z,9.80
2023-04-29T14:02:32.215Z,10.02
2023-04-29T14:05:35.447Z,10.10
2023-04-29T14:08:37.353Z,12.45
2023-04-29T14:11:39.026Z,9.87
2023-04-29T14:14:40.718Z,9.13
2023-04-29T14:17:42.667Z,9.75
2023-04-29T14:20:44.639Z,9.48
2023-04-29T14:23:46.264Z,10.00
2023-04-29T14:26:47.890Z,9.57
2023-04-29T14:29:49.502Z,9.48
2023-04-29T14:32:51.346Z,9.98
2023-04-29T14:35:53.646Z,8.80
2023-04-29T14:38:55.399Z,11.15
2023-04-29T14:41:56.993Z,7.53
2023-04-29T14:44:58.633Z,9.63
2023-04-29T14:48:00.265Z,9.40
2023-04-29T14:51:02.236Z,9.57
2023-04-29T14:54:03.931Z,11.13
2023-04-29T14:57:05.519Z,7.87
2023-04-29T15:00:08.502Z,8.18
2023-04-29T15:03:10.929Z,8.25
2023-04-29T15:06:13.430Z,8.63
2023-04-29T15:09:16.149Z,8.57
2023-04-29T15:12:19.931Z,8.13
2023-04-29T15:15:25.159Z,8.63
2023-04-29T15:18:26.793Z,7.47
2023-04-29T15:21:28.390Z,9.65
2023-04-29T15:24:30.000Z,8.10
2023-04-29T15:27:31.927Z,9.13
2023-04-29T15:30:33.655Z,8.65
2023-04-29T15:33:36.632Z,7.95
2023-04-29T15:36:38.426Z,9.15
2023-04-29T15:39:40.112Z,9.90
2023-04-29T15:42:41.725Z,8.87
2023-04-29T15:45:43.363Z,9.55
2023-04-29T15:48:45.406Z,8.82
2023-04-29T15:51:47.061Z,9.27
2023-04-29T15:54:48.662Z,7.68
2023-04-29T15:57:51.475Z,9.47
2023-04-29T16:00:53.151Z,8.20
2023-04-29T16:03:54.780Z,7.63
2023-04-29T16:06:56.544Z,9.50
2023-04-29T16:09:58.260Z,8.40
2023-04-29T16:13:00.764Z,8.33
2023-04-29T16:16:02.516Z,8.25
2023-04-29T16:19:04.216Z,8.00
2023-04-29T16:22:05.989Z,10.15
2023-04-29T16:25:08.132Z,8.57
2023-04-29T16:28:09.759Z,9.43
2023-04-29T16:31:14.667Z,9.90
2023-04-29T16:34:16.364Z,9.48
2023-04-29T16:37:18.292Z,7.70
2023-04-29T16:40:19.893Z,7.30
2023-04-29T16:43:21.594Z,7.87
2023-04-29T16:46:25.500Z,10.30
2023-04-29T16:49:27.242Z,9.13
2023-04-29T16:52:29.052Z,8.35
2023-04-29T16:55:31.254Z,7.90
2023-04-29T16:58:32.989Z,9.97
2023-04-29T17:01:34.699Z,9.35
2023-04-29T17:04:36.494Z,8.20
2023-04-29T17:07:38.281Z,8.15
2023-04-29T17:10:39.930Z,9.70
2023-04-29T17:13:41.635Z,10.63
2023-04-29T17:16:43.284Z,8.77
2023-04-29T17:19:45.361Z,9.68
2023-04-29T17:22:46.977Z,10.90
2023-04-29T17:25:48.559Z,10.52
2023-04-29T17:28:50.343Z,9.07
2023-04-29T17:31:59.515Z,11.07
2023-04-29T17:35:01.621Z,9.80
2023-04-29T17:38:03.470Z,11.90
2023-04-29T17:41:05.405Z,10.45
2023-04-29T17:44:09.891Z,10.70
2023-04-29T17:47:12.712Z,11.13
2023-04-29T17:50:14.504Z,10.27
2023-04-29T17:53:16.137Z,9.88
2023-04-29T17:56:17.800Z,10.52
2023-04-29T17:59:19.423Z,9.73
2023-04-29T18:02:21.259Z,8.98
2023-04-29T18:05:22.945Z,10.95
2023-04-29T18:08:24.602Z,10.80
2023-04-29T18:11:26.272Z,9.88
2023-04-29T18:14:29.158Z,8.97
2023-04-29T18:17:30.803Z,9.85
2023-04-29T18:20:32.682Z,10.70
2023-04-29T18:23:34.365Z,13.30
2023-04-29T18:26:35.992Z,10.18
2023-04-29T18:29:37.832Z,12.33
2023-04-29T18:32:39.616Z,10.98
2023-04-29T18:35:41.840Z,11.52
2023-04-29T18:38:44.138Z,12.25
2023-04-29T18:41:45.784Z,12.73
2023-04-29T18:44:49.306Z,12.33
2023-04-29T18:47:51.268Z,13.05
2023-04-29T18:50:54.050Z,12.13
2023-04-29T18:53:55.867Z,12.30
2023-04-29T18:56:57.645Z,10.82
2023-04-29T18:59:59.280Z,10.30
2023-04-29T19:03:01.027Z,10.02
2023-04-29T19:06:02.841Z,11.93
2023-04-29T19:09:05.561Z,11.10
2023-04-29T19:12:08.564Z,11.48
2023-04-29T19:15:10.548Z,9.63
2023-04-29T19:18:12.146Z,9.90
2023-04-29T19:21:15.018Z,9.25
2023-04-29T19:24:16.812Z,11.68
2023-04-29T19:27:18.513Z,9.38
2023-04-29T19:30:20.412Z,10.37
2023-04-29T19:33:22.482Z,8.70
2023-04-29T19:36:24.111Z,16.23
2023-04-29T19:39:26.353Z,14.98
2023-04-29T19:42:27.961Z,14.82
2023-04-29T19:45:29.542Z,13.40
2023-04-29T19:48:31.649Z,22.27
2023-04-29T19:51:33.383Z,18.95
2023-04-29T19:54:35.669Z,13.25
2023-04-29T19:57:38.797Z,12.65
2023-04-29T20:00:43.460Z,11.10
2023-04-29T20:03:45.308Z,11.98
2023-04-29T20:06:46.902Z,11.95
2023-04-29T20:09:49.198Z,13.70
2023-04-29T20:12:50.830Z,12.93
2023-04-29T20:15:54.181Z,11.97
2023-04-29T20:18:55.999Z,13.55
2023-04-29T20:21:58.075Z,11.02
2023-04-29T20:24:59.739Z,15.43
2023-04-29T20:28:01.390Z,14.18
2023-04-29T20:31:02.974Z,12.43
2023-04-29T20:34:05.644Z,15.95
2023-04-29T20:37:07.349Z,11.80
2023-04-29T20:40:09.799Z,10.20
2023-04-29T20:43:11.457Z,10.35
2023-04-29T20:46:13.662Z,10.87
2023-04-29T20:49:15.365Z,12.23
2023-04-29T20:52:17.353Z,13.70
2023-04-29T20:55:19.049Z,13.25
2023-04-29T20:58:21.186Z,12.85
2023-04-29T21:01:22.900Z,13.20
2023-04-29T21:04:27.665Z,13.45
2023-04-29T21:07:29.467Z,14.15
2023-04-29T21:10:31.131Z,13.57
2023-04-29T21:13:32.726Z,13.82
2023-04-29T21:16:34.406Z,14.20
2023-04-29T21:19:37.605Z,15.23
2023-04-29T21:22:39.332Z,15.27
2023-04-29T21:25:41.097Z,15.38
2023-04-29T21:28:42.671Z,15.98
2023-04-29T21:31:44.319Z,14.90
2023-04-29T21:34:46.004Z,14.38
2023-04-29T21:37:47.638Z,14.07
2023-04-29T21:40:49.408Z,14.00
2023-04-29T21:43:51.204Z,14.20
2023-04-29T21:46:52.888Z,13.80
2023-04-29T21:49:55.394Z,12.40
2023-04-29T21:52:57.288Z,13.05
2023-04-29T21:55:59.013Z,13.65
2023-04-29T21:59:00.784Z,16.88
2023-04-29T22:02:04.253Z,15.33
2023-04-29T22:05:06.006Z,14.40
2023-04-29T22:08:07.863Z,17.38
2023-04-29T22:11:09.519Z,23.33
2023-04-29T22:14:11.127Z,20.83
2023-04-29T22:17:13.672Z,23.27
2023-04-29T22:20:15.581Z,25.58
2023-04-29T22:23:17.996Z,18.02
2023-04-29T22:26:19.609Z,19.58
2023-04-29T22:29:21.323Z,17.77
2023-04-29T22:32:23.120Z,17.03
2023-04-29T22:35:24.820Z,21.25
2023-04-29T22:38:26.423Z,19.27
2023-04-29T22:41:28.360Z,22.67
2023-04-29T22:44:30.268Z,28.35
2023-04-29T22:47:31.931Z,26.90
2023-04-29T22:50:33.554Z,24.38
2023-04-29T22:53:35.276Z,22.77
2023-04-29T22:56:39.653Z,21.90
2023-04-29T22:59:41.332Z,20.88
2023-04-29T23:02:43.058Z,23.83
2023-04-29T23:05:44.666Z,23.13
2023-04-29T23:08:46.379Z,23.20
2023-04-29T23:11:48.063Z,21.80
2023-04-29T23:14:51.031Z,21.17
2023-04-29T23:17:52.729Z,17.57
2023-04-29T23:20:55.318Z,18.15
2023-04-29T23:23:56.977Z,15.65
2023-04-29T23:26:59.644Z,16.00
2023-04-29T23:30:02.338Z,15.98
2023-04-29T23:33:04.118Z,14.13
2023-04-29T23:36:06.057Z,16.30
2023-04-29T23:39:07.670Z,15.88
2023-04-29T23:42:09.944Z,15.45
2023-04-29T23:45:11.564Z,14.07
2023-04-29T23:48:13.681Z,14.77
2023-04-29T23:51:18.181Z,13.55
2023-04-29T23:54:19.871Z,17.30
2023-04-29T23:57:21.602Z,15.23
